sensor_id;sensor_type;location;lat;lon;timestamp;pressure;altitude;pressure_sealevel;temperature;humidity
77631;BME280;66798;47.370;8.552;2023-05-07T06:03:38;96634.19;;;16.56;64.99
77631;BME280;66798;47.370;8.552;2023-05-07T06:06:03;96635.63;;;16.62;64.57
77631;BME280;66798;47.370;8.552;2023-05-07T06:08:29;96648.50;;;16.77;64.38
77631;BME280;66798;47.370;8.552;2023-05-07T06:10:55;96653.97;;;16.95;64.32
77631;BME280;66798;47.370;8.552;2023-05-07T06:13:21;96657.88;;;17.06;63.94
77631;BME280;66798;47.370;8.552;2023-05-07T06:15:46;96658.56;;;17.20;63.35
77631;BME280;66798;47.370;8.552;2023-05-07T06:18:12;96660.81;;;17.36;62.88
77631;BME280;66798;47.370;8.552;2023-05-07T06:20:37;96658.50;;;17.43;62.82
77631;BME280;66798;47.370;8.552;2023-05-07T06:23:02;96665.59;;;17.74;62.62
77631;BME280;66798;47.370;8.552;2023-05-07T06:25:28;96666.84;;;17.68;61.54
77631;BME280;66798;47.370;8.552;2023-05-07T06:27:53;96680.84;;;17.33;62.37
77631;BME280;66798;47.370;8.552;2023-05-07T06:30:19;96673.31;;;17.27;62.08
77631;BME280;66798;47.370;8.552;2023-05-07T06:32:44;96675.66;;;17.28;62.44
77631;BME280;66798;47.370;8.552;2023-05-07T06:35:10;96671.88;;;17.20;61.92
77631;BME280;66798;47.370;8.552;2023-05-07T06:37:35;96677.25;;;16.75;63.49
77631;BME280;66798;47.370;8.552;2023-05-07T06:40:04;96681.88;;;16.84;63.37
77631;BME280;66798;47.370;8.552;2023-05-07T06:42:30;96674.72;;;17.24;62.35
77631;BME280;66798;47.370;8.552;2023-05-07T06:44:55;96676.88;;;17.22;62.37
77631;BME280;66798;47.370;8.552;2023-05-07T06:47:21;96674.91;;;17.36;61.59
77631;BME280;66798;47.370;8.552;2023-05-07T06:49:46;96671.41;;;17.18;61.40
77631;BME280;66798;47.370;8.552;2023-05-07T06:52:11;96677.06;;;17.34;61.32
77631;BME280;66798;47.370;8.552;2023-05-07T06:54:37;96673.25;;;17.75;60.76
77631;BME280;66798;47.370;8.552;2023-05-07T06:57:02;96672.22;;;18.20;59.35
77631;BME280;66798;47.370;8.552;2023-05-07T06:59:28;96668.13;;;18.49;59.21
77631;BME280;66798;47.370;8.552;2023-05-07T07:01:53;96669.81;;;18.71;57.21
77631;BME280;66798;47.370;8.552;2023-05-07T07:04:18;96667.69;;;19.11;57.28
77631;BME280;66798;47.370;8.552;2023-05-07T07:06:45;96661.75;;;19.73;56.14
77631;BME280;66798;47.370;8.552;2023-05-07T07:09:10;96665.09;;;20.12;55.60
77631;BME280;66798;47.370;8.552;2023-05-07T07:11:36;96669.09;;;20.40;54.90
77631;BME280;66798;47.370;8.552;2023-05-07T07:14:03;96658.50;;;20.31;53.42
77631;BME280;66798;47.370;8.552;2023-05-07T07:16:30;96655.25;;;20.04;53.40
77631;BME280;66798;47.370;8.552;2023-05-07T07:18:55;96668.47;;;20.43;53.65
77631;BME280;66798;47.370;8.552;2023-05-07T07:21:21;96664.25;;;20.87;53.45
77631;BME280;66798;47.370;8.552;2023-05-07T07:23:46;96655.22;;;20.79;52.05
77631;BME280;66798;47.370;8.552;2023-05-07T07:26:11;96655.13;;;21.00;52.27
77631;BME280;66798;47.370;8.552;2023-05-07T07:28:46;96657.84;;;21.50;51.45
77631;BME280;66798;47.370;8.552;2023-05-07T07:31:12;96668.47;;;21.99;51.30
77631;BME280;66798;47.370;8.552;2023-05-07T07:33:38;96663.97;;;22.27;49.03
77631;BME280;66798;47.370;8.552;2023-05-07T07:36:05;96668.81;;;22.38;48.91
77631;BME280;66798;47.370;8.552;2023-05-07T07:38:31;96669.50;;;22.35;48.80
77631;BME280;66798;47.370;8.552;2023-05-07T07:40:57;96668.72;;;22.62;49.76
77631;BME280;66798;47.370;8.552;2023-05-07T07:43:22;96672.19;;;22.63;48.78
77631;BME280;66798;47.370;8.552;2023-05-07T07:45:48;96677.78;;;22.86;48.33
77631;BME280;66798;47.370;8.552;2023-05-07T07:48:14;96667.94;;;23.06;48.18
77631;BME280;66798;47.370;8.552;2023-05-07T07:50:39;96677.88;;;23.21;47.37
77631;BME280;66798;47.370;8.552;2023-05-07T07:53:05;96681.88;;;23.11;46.58
77631;BME280;66798;47.370;8.552;2023-05-07T07:55:30;96677.13;;;23.21;46.72
77631;BME280;66798;47.370;8.552;2023-05-07T07:57:57;96683.97;;;23.34;46.35
77631;BME280;66798;47.370;8.552;2023-05-07T08:00:22;96681.88;;;23.43;46.17
77631;BME280;66798;47.370;8.552;2023-05-07T08:02:48;96679.88;;;23.40;46.34
77631;BME280;66798;47.370;8.552;2023-05-07T08:05:13;96683.09;;;23.46;45.89
77631;BME280;66798;47.370;8.552;2023-05-07T08:07:40;96682.22;;;23.26;47.27
77631;BME280;66798;47.370;8.552;2023-05-07T08:10:06;96685.69;;;23.26;46.08
77631;BME280;66798;47.370;8.552;2023-05-07T08:12:31;96682.28;;;23.45;45.57
77631;BME280;66798;47.370;8.552;2023-05-07T08:14:57;96683.00;;;23.42;45.59
77631;BME280;66798;47.370;8.552;2023-05-07T08:17:22;96688.44;;;23.46;46.46
77631;BME280;66798;47.370;8.552;2023-05-07T08:19:48;96689.72;;;23.52;46.66
77631;BME280;66798;47.370;8.552;2023-05-07T08:22:13;96694.44;;;23.55;46.08
77631;BME280;66798;47.370;8.552;2023-05-07T08:24:40;96690.09;;;23.50;45.63
77631;BME280;66798;47.370;8.552;2023-05-07T08:27:05;96686.38;;;23.55;45.53
77631;BME280;66798;47.370;8.552;2023-05-07T08:29:31;96682.63;;;23.60;46.74
77631;BME280;66798;47.370;8.552;2023-05-07T08:31:56;96690.69;;;23.76;46.08
77631;BME280;66798;47.370;8.552;2023-05-07T08:34:22;96683.63;;;23.87;45.92
77631;BME280;66798;47.370;8.552;2023-05-07T08:36:48;96694.59;;;23.98;47.38
77631;BME280;66798;47.370;8.552;2023-05-07T08:39:15;96692.88;;;24.05;46.09
77631;BME280;66798;47.370;8.552;2023-05-07T08:41:44;96689.91;;;24.10;46.15
77631;BME280;66798;47.370;8.552;2023-05-07T08:44:12;96690.03;;;24.17;45.23
77631;BME280;66798;47.370;8.552;2023-05-07T08:46:39;96684.09;;;24.28;45.49
77631;BME280;66798;47.370;8.552;2023-05-07T08:49:07;96685.25;;;24.46;46.24
77631;BME280;66798;47.370;8.552;2023-05-07T08:51:33;96682.31;;;24.35;45.24
77631;BME280;66798;47.370;8.552;2023-05-07T08:53:59;96688.09;;;24.53;45.69
77631;BME280;66798;47.370;8.552;2023-05-07T08:56:26;96693.09;;;24.55;47.66
77631;BME280;66798;47.370;8.552;2023-05-07T08:58:51;96687.47;;;24.83;45.48
77631;BME280;66798;47.370;8.552;2023-05-07T09:01:21;96689.75;;;25.04;45.45
77631;BME280;66798;47.370;8.552;2023-05-07T09:03:47;96687.44;;;25.26;45.09
77631;BME280;66798;47.370;8.552;2023-05-07T09:06:13;96684.75;;;25.26;44.67
77631;BME280;66798;47.370;8.552;2023-05-07T09:08:39;96686.25;;;25.23;44.67
77631;BME280;66798;47.370;8.552;2023-05-07T09:11:04;96687.16;;;25.08;44.38
77631;BME280;66798;47.370;8.552;2023-05-07T09:13:30;96686.56;;;24.75;44.65
77631;BME280;66798;47.370;8.552;2023-05-07T09:15:55;96683.91;;;24.56;44.92
77631;BME280;66798;47.370;8.552;2023-05-07T09:18:21;96684.97;;;24.51;45.43
77631;BME280;66798;47.370;8.552;2023-05-07T09:20:46;96681.47;;;24.70;46.23
77631;BME280;66798;47.370;8.552;2023-05-07T09:23:12;96674.50;;;25.12;45.20
77631;BME280;66798;47.370;8.552;2023-05-07T09:25:37;96676.25;;;25.47;44.28
77631;BME280;66798;47.370;8.552;2023-05-07T09:28:04;96674.31;;;25.74;43.96
77631;BME280;66798;47.370;8.552;2023-05-07T09:30:34;96677.81;;;25.74;42.88
77631;BME280;66798;47.370;8.552;2023-05-07T09:33:02;96669.75;;;25.78;42.97
77631;BME280;66798;47.370;8.552;2023-05-07T09:35:29;96675.78;;;25.68;43.67
77631;BME280;66798;47.370;8.552;2023-05-07T09:37:57;96671.84;;;25.61;43.48
77631;BME280;66798;47.370;8.552;2023-05-07T09:40:27;96663.75;;;25.61;43.34
77631;BME280;66798;47.370;8.552;2023-05-07T09:42:54;96664.72;;;25.50;43.69
77631;BME280;66798;47.370;8.552;2023-05-07T09:45:26;96660.09;;;25.47;42.68
77631;BME280;66798;47.370;8.552;2023-05-07T09:47:55;96665.28;;;25.36;43.13
77631;BME280;66798;47.370;8.552;2023-05-07T09:50:26;96666.03;;;25.33;43.50
77631;BME280;66798;47.370;8.552;2023-05-07T09:52:55;96667.16;;;25.32;42.91
77631;BME280;66798;47.370;8.552;2023-05-07T09:55:21;96668.69;;;25.56;42.39
77631;BME280;66798;47.370;8.552;2023-05-07T12:28:27;96556.53;;;21.64;52.99
77631;BME280;66798;47.370;8.552;2023-05-07T12:30:53;96559.53;;;22.03;52.57
77631;BME280;66798;47.370;8.552;2023-05-07T12:33:23;96559.03;;;22.13;50.56
77631;BME280;66798;47.370;8.552;2023-05-07T12:35:49;96560.06;;;22.37;50.45
77631;BME280;66798;47.370;8.552;2023-05-07T12:38:17;96563.44;;;22.34;49.13
77631;BME280;66798;47.370;8.552;2023-05-07T12:40:43;96560.94;;;22.57;51.45
77631;BME280;66798;47.370;8.552;2023-05-07T12:45:44;96560.69;;;22.46;50.88
77631;BME280;66798;47.370;8.552;2023-05-07T12:48:10;96569.97;;;22.64;51.85
77631;BME280;66798;47.370;8.552;2023-05-07T12:50:36;96569.97;;;22.64;50.80
77631;BME280;66798;47.370;8.552;2023-05-07T12:53:06;96570.47;;;22.70;51.27
77631;BME280;66798;47.370;8.552;2023-05-07T12:55:44;96571.22;;;22.55;51.55
77631;BME280;66798;47.370;8.552;2023-05-07T12:58:21;96570.13;;;22.72;52.37
77631;BME280;66798;47.370;8.552;2023-05-07T13:00:49;96566.84;;;22.62;51.16
77631;BME280;66798;47.370;8.552;2023-05-07T13:03:29;96574.88;;;22.62;51.13
77631;BME280;66798;47.370;8.552;2023-05-07T13:05:58;96567.88;;;22.58;51.88
77631;BME280;66798;47.370;8.552;2023-05-07T13:08:30;96562.84;;;22.88;51.57
77631;BME280;66798;47.370;8.552;2023-05-07T13:10:58;96560.25;;;22.76;50.61
77631;BME280;66798;47.370;8.552;2023-05-07T13:13:25;96555.50;;;22.85;51.41
77631;BME280;66798;47.370;8.552;2023-05-07T13:15:50;96550.22;;;22.73;50.25
77631;BME280;66798;47.370;8.552;2023-05-07T13:18:16;96550.47;;;22.83;51.88
77631;BME280;66798;47.370;8.552;2023-05-07T13:20:42;96544.16;;;22.76;52.09
77631;BME280;66798;47.370;8.552;2023-05-07T13:23:07;96541.59;;;22.79;51.18
77631;BME280;66798;47.370;8.552;2023-05-07T13:25:33;96534.41;;;22.99;52.51
77631;BME280;66798;47.370;8.552;2023-05-07T13:27:58;96535.50;;;22.82;53.48
77631;BME280;66798;47.370;8.552;2023-05-07T13:30:24;96539.41;;;22.69;53.41
77631;BME280;66798;47.370;8.552;2023-05-07T13:32:49;96527.81;;;22.81;53.28
77631;BME280;66798;47.370;8.552;2023-05-07T13:35:16;96521.34;;;22.82;52.76
77631;BME280;66798;47.370;8.552;2023-05-07T13:37:41;96531.72;;;22.67;52.26
77631;BME280;66798;47.370;8.552;2023-05-07T13:40:07;96533.88;;;22.62;53.86
77631;BME280;66798;47.370;8.552;2023-05-07T13:42:33;96532.84;;;22.51;53.47
77631;BME280;66798;47.370;8.552;2023-05-07T13:44:58;96526.97;;;22.29;52.27
77631;BME280;66798;47.370;8.552;2023-05-07T13:47:24;96519.94;;;22.24;52.46
77631;BME280;66798;47.370;8.552;2023-05-07T13:49:49;96523.63;;;22.20;51.89
77631;BME280;66798;47.370;8.552;2023-05-07T13:52:16;96534.91;;;22.25;53.45
77631;BME280;66798;47.370;8.552;2023-05-07T13:54:41;96531.28;;;22.05;53.62
77631;BME280;66798;47.370;8.552;2023-05-07T13:57:07;96535.44;;;22.03;52.44
77631;BME280;66798;47.370;8.552;2023-05-07T13:59:33;96532.25;;;22.13;53.83
77631;BME280;66798;47.370;8.552;2023-05-07T14:01:58;96543.75;;;21.85;53.95
77631;BME280;66798;47.370;8.552;2023-05-07T14:04:24;96535.53;;;21.78;53.25
77631;BME280;66798;47.370;8.552;2023-05-07T14:06:49;96540.63;;;21.55;52.89
77631;BME280;66798;47.370;8.552;2023-05-07T14:09:15;96538.19;;;21.50;54.39
77631;BME280;66798;47.370;8.552;2023-05-07T14:11:40;96550.78;;;21.62;54.54
77631;BME280;66798;47.370;8.552;2023-05-07T14:14:06;96549.25;;;21.49;53.56
77631;BME280;66798;47.370;8.552;2023-05-07T14:16:31;96555.69;;;21.35;54.79
77631;BME280;66798;47.370;8.552;2023-05-07T14:18:57;96559.59;;;21.38;53.64
77631;BME280;66798;47.370;8.552;2023-05-07T14:21:22;96558.19;;;21.40;53.78
77631;BME280;66798;47.370;8.552;2023-05-07T14:23:48;96559.41;;;21.18;52.09
77631;BME280;66798;47.370;8.552;2023-05-07T14:26:13;96562.75;;;20.78;53.89
77631;BME280;66798;47.370;8.552;2023-05-07T14:28:39;96568.44;;;20.77;53.80
77631;BME280;66798;47.370;8.552;2023-05-07T14:31:05;96563.84;;;20.65;55.35
77631;BME280;66798;47.370;8.552;2023-05-07T14:33:31;96577.69;;;20.34;55.49
77631;BME280;66798;47.370;8.552;2023-05-07T14:35:57;96576.00;;;20.29;54.86
77631;BME280;66798;47.370;8.552;2023-05-07T14:38:22;96570.19;;;20.15;56.55
77631;BME280;66798;47.370;8.552;2023-05-07T14:40:48;96579.59;;;20.00;57.44
77631;BME280;66798;47.370;8.552;2023-05-07T14:43:13;96580.47;;;20.04;56.79
77631;BME280;66798;47.370;8.552;2023-05-07T14:45:38;96583.22;;;20.17;61.87
77631;BME280;66798;47.370;8.552;2023-05-07T14:48:04;96594.53;;;20.47;61.34
77631;BME280;66798;47.370;8.552;2023-05-07T14:50:30;96599.81;;;20.55;62.92
77631;BME280;66798;47.370;8.552;2023-05-07T14:52:55;96608.41;;;20.40;63.29
77631;BME280;66798;47.370;8.552;2023-05-07T14:55:21;96611.22;;;20.44;64.05
77631;BME280;66798;47.370;8.552;2023-05-07T14:57:47;96614.25;;;20.54;62.74
77631;BME280;66798;47.370;8.552;2023-05-07T15:00:13;96625.16;;;20.49;62.64
77631;BME280;66798;47.370;8.552;2023-05-07T15:02:38;96617.88;;;20.37;63.18
77631;BME280;66798;47.370;8.552;2023-05-07T15:05:04;96635.31;;;20.23;62.16
77631;BME280;66798;47.370;8.552;2023-05-07T15:07:30;96637.66;;;20.03;61.57
77631;BME280;66798;47.370;8.552;2023-05-07T15:09:57;96642.09;;;19.78;61.97
77631;BME280;66798;47.370;8.552;2023-05-07T15:12:23;96631.34;;;19.36;64.26
77631;BME280;66798;47.370;8.552;2023-05-07T15:14:48;96637.25;;;19.42;62.51
77631;BME280;66798;47.370;8.552;2023-05-07T15:17:14;96642.66;;;19.33;64.71
77631;BME280;66798;47.370;8.552;2023-05-07T15:19:40;96639.97;;;18.95;66.29
77631;BME280;66798;47.370;8.552;2023-05-07T15:22:06;96644.66;;;19.06;65.67
77631;BME280;66798;47.370;8.552;2023-05-07T15:24:32;96643.75;;;19.02;66.90
77631;BME280;66798;47.370;8.552;2023-05-07T15:26:58;96642.13;;;19.10;68.87
77631;BME280;66798;47.370;8.552;2023-05-07T15:29:23;96639.97;;;19.03;66.75
77631;BME280;66798;47.370;8.552;2023-05-07T15:31:50;96644.75;;;18.72;68.13
77631;BME280;66798;47.370;8.552;2023-05-07T15:34:17;96649.13;;;18.67;69.24
77631;BME280;66798;47.370;8.552;2023-05-07T15:36:42;96658.69;;;18.68;68.60
77631;BME280;66798;47.370;8.552;2023-05-07T15:39:07;96655.63;;;18.32;69.88
77631;BME280;66798;47.370;8.552;2023-05-07T15:41:33;96662.84;;;18.31;71.13
77631;BME280;66798;47.370;8.552;2023-05-07T15:43:58;96663.94;;;17.95;70.96
77631;BME280;66798;47.370;8.552;2023-05-07T15:46:24;96663.78;;;18.00;72.06
77631;BME280;66798;47.370;8.552;2023-05-07T15:48:53;96669.09;;;17.92;72.78
77631;BME280;66798;47.370;8.552;2023-05-07T15:51:19;96672.09;;;18.08;71.56
77631;BME280;66798;47.370;8.552;2023-05-07T15:53:45;96689.75;;;18.03;72.46
77631;BME280;66798;47.370;8.552;2023-05-07T15:56:11;96693.22;;;17.95;74.02
77631;BME280;66798;47.370;8.552;2023-05-07T15:58:37;96700.44;;;18.12;72.88
77631;BME280;66798;47.370;8.552;2023-05-07T16:01:03;96714.22;;;18.14;72.32
77631;BME280;66798;47.370;8.552;2023-05-07T16:03:30;96711.22;;;18.16;72.22
77631;BME280;66798;47.370;8.552;2023-05-07T16:05:56;96727.84;;;18.39;71.76
77631;BME280;66798;47.370;8.552;2023-05-07T16:08:27;96729.25;;;18.36;71.95
77631;BME280;66798;47.370;8.552;2023-05-07T16:10:53;96735.34;;;18.54;71.07
77631;BME280;66798;47.370;8.552;2023-05-07T16:13:18;96738.97;;;18.50;71.04
77631;BME280;66798;47.370;8.552;2023-05-07T16:15:45;96739.59;;;18.38;71.40
77631;BME280;66798;47.370;8.552;2023-05-07T16:18:11;96743.34;;;18.45;71.96
77631;BME280;66798;47.370;8.552;2023-05-07T16:20:36;96741.63;;;18.50;71.78
77631;BME280;66798;47.370;8.552;2023-05-07T16:23:02;96758.25;;;18.64;72.26
77631;BME280;66798;47.370;8.552;2023-05-07T16:25:28;96750.69;;;18.66;73.54
77631;BME280;66798;47.370;8.552;2023-05-07T16:27:54;96753.84;;;18.68;72.91
77631;BME280;66798;47.370;8.552;2023-05-07T16:30:20;96759.78;;;18.65;73.24
77631;BME280;66798;47.370;8.552;2023-05-07T16:32:46;96762.47;;;18.65;73.86
77631;BME280;66798;47.370;8.552;2023-05-07T16:35:11;96771.88;;;18.62;74.87
77631;BME280;66798;47.370;8.552;2023-05-07T16:37:39;96774.69;;;18.57;74.64
77631;BME280;66798;47.370;8.552;2023-05-07T16:40:06;96775.16;;;18.59;73.71
77631;BME280;66798;47.370;8.552;2023-05-07T16:42:33;96783.63;;;18.53;73.44
77631;BME280;66798;47.370;8.552;2023-05-07T16:44:59;96790.84;;;18.52;74.62
77631;BME280;66798;47.370;8.552;2023-05-07T16:47:25;96796.63;;;18.45;74.41
77631;BME280;66798;47.370;8.552;2023-05-07T16:49:50;96797.72;;;18.44;73.81
77631;BME280;66798;47.370;8.552;2023-05-07T16:52:15;96802.72;;;18.37;73.30
77631;BME280;66798;47.370;8.552;2023-05-07T16:54:41;96808.97;;;18.33;74.31
77631;BME280;66798;47.370;8.552;2023-05-07T16:57:06;96811.47;;;18.20;74.26
77631;BME280;66798;47.370;8.552;2023-05-07T16:59:32;96814.44;;;18.19;74.15
77631;BME280;66798;47.370;8.552;2023-05-07T17:01:58;96816.63;;;18.17;75.31
77631;BME280;66798;47.370;8.552;2023-05-07T17:04:23;96814.13;;;18.12;76.32
77631;BME280;66798;47.370;8.552;2023-05-07T17:06:49;96824.13;;;18.06;75.23
77631;BME280;66798;47.370;8.552;2023-05-07T17:09:15;96819.41;;;18.03;75.00
77631;BME280;66798;47.370;8.552;2023-05-07T17:11:40;96827.53;;;17.98;74.33
77631;BME280;66798;47.370;8.552;2023-05-07T17:14:06;96813.56;;;17.92;74.56
77631;BME280;66798;47.370;8.552;2023-05-07T17:16:32;96820.63;;;17.88;75.34
77631;BME280;66798;47.370;8.552;2023-05-07T17:18:57;96818.88;;;17.83;76.44
77631;BME280;66798;47.370;8.552;2023-05-07T17:21:23;96822.81;;;17.86;75.87
77631;BME280;66798;47.370;8.552;2023-05-07T17:23:48;96820.84;;;17.78;76.43
77631;BME280;66798;47.370;8.552;2023-05-07T17:26:14;96828.00;;;17.60;76.28
77631;BME280;66798;47.370;8.552;2023-05-07T17:28:40;96834.44;;;17.68;77.09
77631;BME280;66798;47.370;8.552;2023-05-07T17:31:05;96824.97;;;17.53;77.29
77631;BME280;66798;47.370;8.552;2023-05-07T17:33:31;96833.69;;;17.45;76.89
77631;BME280;66798;47.370;8.552;2023-05-07T17:35:56;96833.22;;;17.43;77.35
77631;BME280;66798;47.370;8.552;2023-05-07T17:38:22;96832.56;;;17.37;76.46
77631;BME280;66798;47.370;8.552;2023-05-07T17:40:47;96837.53;;;17.30;76.44
77631;BME280;66798;47.370;8.552;2023-05-07T17:43:13;96844.56;;;17.26;77.17
77631;BME280;66798;47.370;8.552;2023-05-07T17:45:39;96848.34;;;17.33;77.18
77631;BME280;66798;47.370;8.552;2023-05-07T17:48:04;96845.97;;;17.32;76.94
77631;BME280;66798;47.370;8.552;2023-05-07T17:50:30;96853.13;;;17.23;76.48
77631;BME280;66798;47.370;8.552;2023-05-07T17:52:56;96855.53;;;17.10;76.96
77631;BME280;66798;47.370;8.552;2023-05-07T17:55:24;96866.59;;;17.04;76.80
77631;BME280;66798;47.370;8.552;2023-05-07T17:57:49;96872.53;;;16.87;76.56
77631;BME280;66798;47.370;8.552;2023-05-07T18:00:15;96862.91;;;16.91;77.55
77631;BME280;66798;47.370;8.552;2023-05-07T18:02:40;96866.03;;;16.93;77.14
77631;BME280;66798;47.370;8.552;2023-05-07T18:05:07;96873.94;;;16.84;78.66
77631;BME280;66798;47.370;8.552;2023-05-07T18:07:33;96874.31;;;16.77;76.95
77631;BME280;66798;47.370;8.552;2023-05-07T18:09:59;96881.63;;;16.72;77.83
77631;BME280;66798;47.370;8.552;2023-05-07T18:12:24;96885.44;;;16.66;77.81
77631;BME280;66798;47.370;8.552;2023-05-07T18:14:50;96886.72;;;16.68;79.69
77631;BME280;66798;47.370;8.552;2023-05-07T18:17:15;96882.50;;;16.67;78.44
77631;BME280;66798;47.370;8.552;2023-05-07T18:19:41;96887.44;;;16.60;79.08
77631;BME280;66798;47.370;8.552;2023-05-07T18:22:07;96889.13;;;16.56;77.54
77631;BME280;66798;47.370;8.552;2023-05-07T18:24:33;96887.06;;;16.53;78.44
77631;BME280;66798;47.370;8.552;2023-05-07T18:26:58;96891.28;;;16.54;79.27
77631;BME280;66798;47.370;8.552;2023-05-07T18:29:24;96886.78;;;16.54;79.06
77631;BME280;66798;47.370;8.552;2023-05-07T18:31:49;96892.09;;;16.54;78.71
77631;BME280;66798;47.370;8.552;2023-05-07T18:34:15;96887.94;;;16.48;78.66
77631;BME280;66798;47.370;8.552;2023-05-07T18:36:41;96887.16;;;16.48;79.07
77631;BME280;66798;47.370;8.552;2023-05-07T18:39:06;96895.25;;;16.43;78.70
77631;BME280;66798;47.370;8.552;2023-05-07T18:41:33;96899.28;;;16.40;78.86
77631;BME280;66798;47.370;8.552;2023-05-07T18:43:58;96902.00;;;16.35;78.81
77631;BME280;66798;47.370;8.552;2023-05-07T18:46:23;96902.81;;;16.35;79.04
77631;BME280;66798;47.370;8.552;2023-05-07T18:48:49;96911.84;;;16.21;78.52
77631;BME280;66798;47.370;8.552;2023-05-07T18:51:15;96912.25;;;16.28;78.55
77631;BME280;66798;47.370;8.552;2023-05-07T18:53:40;96912.94;;;16.20;78.28
77631;BME280;66798;47.370;8.552;2023-05-07T18:56:06;96912.44;;;16.18;78.84
77631;BME280;66798;47.370;8.552;2023-05-07T18:58:33;96916.69;;;16.19;78.06
77631;BME280;66798;47.370;8.552;2023-05-07T19:00:59;96928.19;;;16.14;78.49
77631;BME280;66798;47.370;8.552;2023-05-07T19:03:26;96920.38;;;16.04;78.72
77631;BME280;66798;47.370;8.552;2023-05-07T19:05:52;96922.25;;;16.03;78.33
77631;BME280;66798;47.370;8.552;2023-05-07T19:08:18;96919.59;;;16.03;79.07
77631;BME280;66798;47.370;8.552;2023-05-07T19:10:43;96930.72;;;16.05;79.13
77631;BME280;66798;47.370;8.552;2023-05-07T19:13:09;96927.06;;;16.01;79.13
77631;BME280;66798;47.370;8.552;2023-05-07T19:15:35;96932.69;;;16.00;79.08
77631;BME280;66798;47.370;8.552;2023-05-07T19:18:01;96928.34;;;15.90;79.58
77631;BME280;66798;47.370;8.552;2023-05-07T19:20:27;96929.81;;;15.96;79.24
77631;BME280;66798;47.370;8.552;2023-05-07T19:22:52;96937.88;;;15.91;78.45
77631;BME280;66798;47.370;8.552;2023-05-07T19:25:18;96941.31;;;15.91;78.78
77631;BME280;66798;47.370;8.552;2023-05-07T19:27:43;96945.22;;;15.80;78.80
77631;BME280;66798;47.370;8.552;2023-05-07T19:30:09;96953.38;;;15.84;78.97
77631;BME280;66798;47.370;8.552;2023-05-07T19:32:35;96951.59;;;15.79;78.80
77631;BME280;66798;47.370;8.552;2023-05-07T19:35:00;96956.03;;;15.84;79.07
77631;BME280;66798;47.370;8.552;2023-05-07T19:37:26;96969.09;;;15.80;78.90
77631;BME280;66798;47.370;8.552;2023-05-07T19:39:53;96971.25;;;15.78;79.07
77631;BME280;66798;47.370;8.552;2023-05-07T19:42:18;96973.59;;;15.80;78.75
77631;BME280;66798;47.370;8.552;2023-05-07T19:44:44;96977.06;;;15.80;79.09
77631;BME280;66798;47.370;8.552;2023-05-07T19:47:09;96981.56;;;15.80;78.20
77631;BME280;66798;47.370;8.552;2023-05-07T19:49:35;96973.41;;;15.76;78.06
77631;BME280;66798;47.370;8.552;2023-05-07T19:52:00;96981.06;;;15.78;79.27
77631;BME280;66798;47.370;8.552;2023-05-07T19:54:26;96980.28;;;15.77;79.14
77631;BME280;66798;47.370;8.552;2023-05-07T19:56:52;96990.09;;;15.77;79.02
77631;BME280;66798;47.370;8.552;2023-05-07T19:59:19;96993.53;;;15.77;78.55
77631;BME280;66798;47.370;8.552;2023-05-07T20:01:44;96997.78;;;15.78;78.50
77631;BME280;66798;47.370;8.552;2023-05-07T20:04:09;96990.38;;;15.75;78.07
77631;BME280;66798;47.370;8.552;2023-05-07T20:06:35;96997.13;;;15.67;77.12
77631;BME280;66798;47.370;8.552;2023-05-07T20:09:00;96993.91;;;15.70;77.86
77631;BME280;66798;47.370;8.552;2023-05-07T20:11:26;96997.38;;;15.71;76.94
77631;BME280;66798;47.370;8.552;2023-05-07T20:13:52;97000.03;;;15.71;75.94
77631;BME280;66798;47.370;8.552;2023-05-07T20:16:18;97002.13;;;15.69;77.21
77631;BME280;66798;47.370;8.552;2023-05-07T20:18:43;97004.38;;;15.62;75.90
77631;BME280;66798;47.370;8.552;2023-05-07T20:21:08;97007.81;;;15.62;76.97
77631;BME280;66798;47.370;8.552;2023-05-07T20:23:34;97007.28;;;15.60;77.75
77631;BME280;66798;47.370;8.552;2023-05-07T20:25:59;97016.91;;;15.56;78.07
77631;BME280;66798;47.370;8.552;2023-05-07T20:28:25;97016.97;;;15.51;78.06
77631;BME280;66798;47.370;8.552;2023-05-07T20:30:50;97016.84;;;15.42;78.57
77631;BME280;66798;47.370;8.552;2023-05-07T20:33:20;97018.06;;;15.50;79.11
77631;BME280;66798;47.370;8.552;2023-05-07T20:35:45;97025.50;;;15.48;78.18
77631;BME280;66798;47.370;8.552;2023-05-07T20:38:11;97025.25;;;15.49;77.66
77631;BME280;66798;47.370;8.552;2023-05-07T20:40:37;97026.88;;;15.45;79.00
